Time;durP1;ratioP1;P1;durP2;ratioP2;P2;SDS_P1;SDS_P2;PMS_P1;PMS_P2;Temp;Humidity;BMP_temperature;BMP_pressure;BME280_temperature;BME280_humidity;BME280_pressure;Samples;Min_cycle;Max_cycle;Signal;HPM_P1;HPM_P2
2022/09/24 00:01:10;;;;;;;13.77;10.60;;;;;;;;;;5095911;28;20510;-68
2022/09/24 00:03:37;;;;;;;11.80;10.60;;;;;;;;;;5095814;28;20444;-68
2022/09/24 00:06:05;;;;;;;11.93;10.80;;;;;;;;;;5094489;28;20571;-68
2022/09/24 00:08:33;;;;;;;14.67;10.40;;;;;;;;;;5095540;28;20444;-68
2022/09/24 00:11:02;;;;;;;19.63;11.90;;;;;;;;;;5095459;28;20477;-68
2022/09/24 00:13:30;;;;;;;12.77;10.27;;;;;;;;;;5095422;28;20442;-68
2022/09/24 00:15:57;;;;;;;17.30;13.00;;;;;;;;;;5095290;28;20934;-68
2022/09/24 00:18:24;;;;;;;14.17;10.80;;;;;;;;;;5095308;28;20459;-68
2022/09/24 00:20:51;;;;;;;16.27;12.83;;;;;;;;;;5095518;28;20924;-68
2022/09/24 00:23:19;;;;;;;22.50;16.73;;;;;;;;;;5095546;28;20480;-68
2022/09/24 00:28:32;;;;;;;13.60;12.23;;;;;;;;;;5095347;28;20509;-67
2022/09/24 00:31:00;;;;;;;14.50;12.87;;;;;;;;;;5095520;28;20455;-67
2022/09/24 00:33:28;;;;;;;14.97;12.47;;;;;;;;;;5095006;28;20930;-67
2022/09/24 00:36:01;;;;;;;13.33;12.03;;;;;;;;;;5095616;28;20437;-67
2022/09/24 00:38:28;;;;;;;12.93;11.67;;;;;;;;;;5094939;28;20508;-67
2022/09/24 00:40:57;;;;;;;13.50;12.17;;;;;;;;;;5095589;28;20536;-67
2022/09/24 00:43:25;;;;;;;15.30;11.13;;;;;;;;;;5095192;28;20435;-67
2022/09/24 00:45:54;;;;;;;12.80;11.47;;;;;;;;;;5094647;28;20466;-67
2022/09/24 00:48:21;;;;;;;12.67;11.33;;;;;;;;;;5095394;28;20519;-68
2022/09/24 00:50:49;;;;;;;16.73;12.30;;;;;;;;;;5094814;28;20948;-67
2022/09/24 00:53:18;;;;;;;13.33;10.80;;;;;;;;;;5095078;28;20938;-68
2022/09/24 00:55:48;;;;;;;17.17;11.60;;;;;;;;;;5094908;28;20960;-68
2022/09/24 00:58:16;;;;;;;13.73;11.20;;;;;;;;;;5094744;28;20449;-68
2022/09/24 01:00:44;;;;;;;12.80;11.50;;;;;;;;;;5094401;28;20435;-68
2022/09/24 01:03:13;;;;;;;13.20;11.33;;;;;;;;;;5094384;28;20449;-68
2022/09/24 01:05:40;;;;;;;14.17;12.50;;;;;;;;;;5095246;28;20460;-68
2022/09/24 01:08:08;;;;;;;12.23;11.03;;;;;;;;;;5095335;28;20477;-68
2022/09/24 01:10:48;;;;;;;15.23;12.03;;;;;;;;;;5094199;28;20441;-68
2022/09/24 01:13:23;;;;;;;15.43;12.67;;;;;;;;;;5094383;28;20520;-68
2022/09/24 01:15:53;;;;;;;13.33;11.93;;;;;;;;;;5094596;28;20425;-68
2022/09/24 01:18:27;;;;;;;15.57;12.40;;;;;;;;;;5094278;28;20444;-68
2022/09/24 01:21:00;;;;;;;16.27;13.40;;;;;;;;;;5094686;28;20420;-67
2022/09/24 01:23:45;;;;;;;14.43;11.50;;;;;;;;;;5094676;28;20420;-68
2022/09/24 01:26:18;;;;;;;19.17;11.60;;;;;;;;;;5093711;28;20440;-68
2022/09/24 01:28:54;;;;;;;16.70;12.20;;;;;;;;;;5093975;28;20479;-68
2022/09/24 01:31:27;;;;;;;15.40;12.23;;;;;;;;;;5094479;28;20475;-69
2022/09/24 01:33:55;;;;;;;17.77;13.63;;;;;;;;;;5094034;28;20916;-68
2022/09/24 01:36:23;;;;;;;16.00;12.60;;;;;;;;;;5093824;28;20435;-68
2022/09/24 01:38:52;;;;;;;17.27;14.30;;;;;;;;;;5093807;28;20437;-68
2022/09/24 01:41:20;;;;;;;15.00;13.43;;;;;;;;;;5093949;28;20445;-68
2022/09/24 01:43:49;;;;;;;15.90;14.00;;;;;;;;;;5094093;28;20467;-68
2022/09/24 01:46:18;;;;;;;22.17;14.97;;;;;;;;;;5093822;28;20518;-68
2022/09/24 01:48:48;;;;;;;19.10;17.03;;;;;;;;;;5093797;28;20446;-67
2022/09/24 01:51:16;;;;;;;20.47;17.20;;;;;;;;;;5093854;28;20494;-67
2022/09/24 01:53:46;;;;;;;23.77;18.50;;;;;;;;;;5094249;28;20440;-68
2022/09/24 01:56:16;;;;;;;23.63;21.23;;;;;;;;;;5093729;28;20522;-68
2022/09/24 01:58:47;;;;;;;24.57;21.97;;;;;;;;;;5094189;28;20862;-67
2022/09/24 02:01:18;;;;;;;27.50;21.97;;;;;;;;;;5094140;28;20479;-69
2022/09/24 02:03:49;;;;;;;29.37;24.27;;;;;;;;;;5093449;28;20873;-67
2022/09/24 02:06:17;;;;;;;27.13;23.50;;;;;;;;;;5093354;28;20967;-70
2022/09/24 02:08:46;;;;;;;28.73;24.60;;;;;;;;;;5093668;28;20444;-69
2022/09/24 02:11:15;;;;;;;33.57;27.20;;;;;;;;;;5093650;28;20436;-68
2022/09/24 02:13:44;;;;;;;32.27;26.90;;;;;;;;;;5093426;28;20458;-70
2022/09/24 02:16:15;;;;;;;33.30;27.60;;;;;;;;;;5093727;28;20467;-70
2022/09/24 02:18:45;;;;;;;34.30;27.07;;;;;;;;;;5093353;28;20485;-69
2022/09/24 02:21:15;;;;;;;41.17;28.20;;;;;;;;;;5094111;28;20432;-69
2022/09/24 02:23:45;;;;;;;35.07;29.40;;;;;;;;;;5093610;28;20440;-70
2022/09/24 02:26:12;;;;;;;37.90;29.23;;;;;;;;;;5094068;28;20450;-70
2022/09/24 02:28:40;;;;;;;37.70;29.63;;;;;;;;;;5093189;28;20499;-70
2022/09/24 02:31:09;;;;;;;38.17;30.47;;;;;;;;;;5092579;28;20493;-70
2022/09/24 02:36:24;;;;;;;33.57;28.90;;;;;;;;;;5093381;28;20391;-70
2022/09/24 02:38:51;;;;;;;40.47;32.23;;;;;;;;;;5093900;28;20476;-70
2022/09/24 02:41:21;;;;;;;42.33;29.67;;;;;;;;;;5093411;28;20469;-70
2022/09/24 02:43:48;;;;;;;39.37;31.30;;;;;;;;;;5092973;28;20448;-70
2022/09/24 02:46:15;;;;;;;43.17;31.17;;;;;;;;;;5092958;28;20947;-69
2022/09/24 02:48:42;;;;;;;38.87;30.90;;;;;;;;;;5093201;28;20480;-70
2022/09/24 02:51:10;;;;;;;40.57;30.87;;;;;;;;;;5093283;28;20436;-69
2022/09/24 02:53:38;;;;;;;43.03;31.00;;;;;;;;;;5093155;28;20634;-68
2022/09/24 02:56:06;;;;;;;44.67;31.53;;;;;;;;;;5092924;28;20448;-68
2022/09/24 02:58:36;;;;;;;41.87;31.70;;;;;;;;;;5093227;28;20451;-69
2022/09/24 03:01:03;;;;;;;44.20;31.90;;;;;;;;;;5092886;28;20944;-69
2022/09/24 03:03:31;;;;;;;40.17;30.20;;;;;;;;;;5092766;28;20440;-69
2022/09/24 03:05:58;;;;;;;48.07;33.67;;;;;;;;;;5093146;28;20445;-69
2022/09/24 03:08:26;;;;;;;41.57;32.37;;;;;;;;;;5092952;28;20479;-70
2022/09/24 03:10:55;;;;;;;42.47;32.27;;;;;;;;;;5093126;28;20432;-70
2022/09/24 03:13:22;;;;;;;43.57;33.47;;;;;;;;;;5092683;28;20443;-70
2022/09/24 03:15:49;;;;;;;46.63;35.53;;;;;;;;;;5092723;28;20526;-69
2022/09/24 03:18:17;;;;;;;40.87;32.20;;;;;;;;;;5092982;28;20772;-69
2022/09/24 03:20:44;;;;;;;41.37;33.57;;;;;;;;;;5092980;28;20445;-69
2022/09/24 03:23:11;;;;;;;38.90;32.53;;;;;;;;;;5092532;28;20439;-69
2022/09/24 03:25:38;;;;;;;47.60;34.40;;;;;;;;;;5093021;28;20452;-69
2022/09/24 03:28:07;;;;;;;40.50;35.30;;;;;;;;;;5092088;28;20994;-68
2022/09/24 03:33:19;;;;;;;41.50;32.57;;;;;;;;;;5092605;28;20501;-70
2022/09/24 03:35:46;;;;;;;43.00;34.37;;;;;;;;;;5092841;28;20446;-69
2022/09/24 03:38:13;;;;;;;41.23;33.80;;;;;;;;;;5092919;28;20443;-69
2022/09/24 03:40:41;;;;;;;43.57;34.47;;;;;;;;;;5093051;28;20456;-74
2022/09/24 03:43:09;;;;;;;39.80;33.17;;;;;;;;;;5096464;28;20555;-68
2022/09/24 03:45:37;;;;;;;44.07;35.60;;;;;;;;;;5096112;28;20443;-69
2022/09/24 03:48:05;;;;;;;44.57;34.57;;;;;;;;;;5096655;28;20467;-68
2022/09/24 03:50:32;;;;;;;53.60;36.10;;;;;;;;;;5096057;28;20501;-68
2022/09/24 03:52:59;;;;;;;53.33;38.80;;;;;;;;;;5095884;28;20936;-68
2022/09/24 03:55:26;;;;;;;50.30;39.60;;;;;;;;;;5096380;28;20469;-68
2022/09/24 03:57:54;;;;;;;50.83;38.13;;;;;;;;;;5095828;28;20439;-68
2022/09/24 04:00:23;;;;;;;49.83;37.63;;;;;;;;;;5094542;28;20468;-68
2022/09/24 04:02:50;;;;;;;51.33;37.87;;;;;;;;;;5094983;28;20447;-68
2022/09/24 04:05:18;;;;;;;50.60;39.30;;;;;;;;;;5094899;28;20440;-68
2022/09/24 04:07:45;;;;;;;55.43;38.57;;;;;;;;;;5094752;28;20477;-69
2022/09/24 04:10:13;;;;;;;47.27;37.87;;;;;;;;;;5094783;28;20449;-69
2022/09/24 04:12:42;;;;;;;56.80;38.87;;;;;;;;;;5094947;28;20447;-69
2022/09/24 04:15:10;;;;;;;55.60;38.50;;;;;;;;;;5094481;28;20521;-69
2022/09/24 04:17:38;;;;;;;50.50;36.60;;;;;;;;;;5095082;28;20470;-69
2022/09/24 04:20:06;;;;;;;48.70;37.50;;;;;;;;;;5094467;28;20433;-68
2022/09/24 04:22:33;;;;;;;47.90;36.63;;;;;;;;;;5094720;28;20936;-68
2022/09/24 04:25:02;;;;;;;55.70;38.70;;;;;;;;;;5094551;28;20443;-68
2022/09/24 04:27:29;;;;;;;52.70;36.97;;;;;;;;;;5094412;28;20477;-69
2022/09/24 04:29:57;;;;;;;52.00;38.13;;;;;;;;;;5094584;28;20436;-68
2022/09/24 04:32:24;;;;;;;57.33;39.37;;;;;;;;;;5094532;28;20446;-68
2022/09/24 04:34:53;;;;;;;56.17;41.07;;;;;;;;;;5094515;28;20955;-68
2022/09/24 04:37:20;;;;;;;57.70;39.17;;;;;;;;;;5094469;28;20439;-68
2022/09/24 04:39:47;;;;;;;61.47;42.17;;;;;;;;;;5094558;28;20436;-68
2022/09/24 04:42:17;;;;;;;58.37;41.27;;;;;;;;;;5095141;28;20453;-68
2022/09/24 04:44:46;;;;;;;56.40;40.70;;;;;;;;;;5095538;28;20827;-68
2022/09/24 04:47:13;;;;;;;57.27;40.57;;;;;;;;;;5094609;28;20851;-68
2022/09/24 04:49:44;;;;;;;58.70;41.00;;;;;;;;;;5094496;28;20436;-68
2022/09/24 04:52:14;;;;;;;59.17;43.80;;;;;;;;;;5094116;28;20521;-68
2022/09/24 04:54:46;;;;;;;57.07;39.87;;;;;;;;;;5094841;28;20423;-68
2022/09/24 04:57:13;;;;;;;57.57;41.37;;;;;;;;;;5093979;28;20428;-69
2022/09/24 04:59:40;;;;;;;65.07;42.67;;;;;;;;;;5093542;28;20440;-67
2022/09/24 05:02:08;;;;;;;55.63;39.17;;;;;;;;;;5094354;28;20442;-69
2022/09/24 05:04:35;;;;;;;55.10;41.40;;;;;;;;;;5094345;28;20940;-68
2022/09/24 05:07:02;;;;;;;66.27;41.40;;;;;;;;;;5094653;28;20444;-67
2022/09/24 05:09:31;;;;;;;55.33;41.10;;;;;;;;;;5094048;28;20478;-68
2022/09/24 05:11:58;;;;;;;60.70;40.77;;;;;;;;;;5093879;28;20441;-68
2022/09/24 05:14:26;;;;;;;59.80;42.23;;;;;;;;;;5094329;28;20542;-68
2022/09/24 05:16:53;;;;;;;56.03;39.10;;;;;;;;;;5093750;28;20443;-68
2022/09/24 05:19:20;;;;;;;57.23;40.83;;;;;;;;;;5093545;28;20440;-68
2022/09/24 05:21:48;;;;;;;60.93;40.60;;;;;;;;;;5093781;28;20437;-68
2022/09/24 05:24:15;;;;;;;59.27;41.83;;;;;;;;;;5093979;28;20531;-68
2022/09/24 05:29:29;;;;;;;59.87;39.70;;;;;;;;;;5086774;28;20831;-69
2022/09/24 05:31:56;;;;;;;55.97;41.43;;;;;;;;;;5073434;28;20441;-69
2022/09/24 05:34:23;;;;;;;55.87;40.47;;;;;;;;;;5073742;28;20450;-68
2022/09/24 05:36:50;;;;;;;61.87;43.20;;;;;;;;;;5073174;28;20448;-68
2022/09/24 05:39:17;;;;;;;59.27;41.10;;;;;;;;;;5072983;28;20962;-68
2022/09/24 05:41:46;;;;;;;68.10;44.20;;;;;;;;;;5073526;28;20445;-69
2022/09/24 05:44:13;;;;;;;57.60;40.10;;;;;;;;;;5073716;28;20549;-68
2022/09/24 05:46:40;;;;;;;64.63;40.50;;;;;;;;;;5073809;28;20441;-68
2022/09/24 05:49:08;;;;;;;68.97;43.37;;;;;;;;;;5073244;28;20484;-68
2022/09/24 05:51:35;;;;;;;56.10;41.60;;;;;;;;;;5073258;28;20503;-68
2022/09/24 05:54:02;;;;;;;68.93;46.83;;;;;;;;;;5073471;28;20802;-68
2022/09/24 05:56:30;;;;;;;63.27;45.43;;;;;;;;;;5073209;28;20445;-69
2022/09/24 05:58:59;;;;;;;70.90;47.47;;;;;;;;;;5072910;28;20544;-69
2022/09/24 06:01:28;;;;;;;70.20;44.87;;;;;;;;;;5072683;28;20950;-69
2022/09/24 06:03:56;;;;;;;67.90;46.77;;;;;;;;;;5073151;28;20537;-70
2022/09/24 06:06:23;;;;;;;73.00;46.00;;;;;;;;;;5073401;28;20790;-70
2022/09/24 06:08:51;;;;;;;60.90;42.50;;;;;;;;;;5072833;28;21011;-72
2022/09/24 06:11:20;;;;;;;59.30;42.03;;;;;;;;;;5072760;28;20456;-69
2022/09/24 06:13:47;;;;;;;64.20;39.53;;;;;;;;;;5072914;28;20498;-69
2022/09/24 06:16:16;;;;;;;58.57;41.10;;;;;;;;;;5072721;28;20444;-69
2022/09/24 06:18:44;;;;;;;58.20;38.60;;;;;;;;;;5072602;28;20458;-69
2022/09/24 06:21:12;;;;;;;53.97;38.87;;;;;;;;;;5072553;28;20460;-73
2022/09/24 06:23:39;;;;;;;62.50;39.10;;;;;;;;;;5072817;28;20444;-73
2022/09/24 06:26:07;;;;;;;60.00;40.60;;;;;;;;;;5072791;28;20445;-72
2022/09/24 06:28:34;;;;;;;53.40;39.57;;;;;;;;;;5072847;28;20493;-72
2022/09/24 06:31:02;;;;;;;63.20;40.87;;;;;;;;;;5072430;28;20480;-73
2022/09/24 06:33:31;;;;;;;65.27;42.17;;;;;;;;;;5073126;28;20445;-73
2022/09/24 06:36:00;;;;;;;56.03;39.43;;;;;;;;;;5072987;28;20441;-73
2022/09/24 06:38:28;;;;;;;63.33;42.60;;;;;;;;;;5073050;28;20441;-73
2022/09/24 06:40:59;;;;;;;57.90;42.03;;;;;;;;;;5073146;28;20449;-73
2022/09/24 06:43:26;;;;;;;58.50;41.20;;;;;;;;;;5073041;28;20433;-73
2022/09/24 06:45:55;;;;;;;62.07;42.53;;;;;;;;;;5072739;28;20443;-73
2022/09/24 06:48:23;;;;;;;62.97;42.07;;;;;;;;;;5072831;28;20476;-73
2022/09/24 06:50:51;;;;;;;61.30;42.97;;;;;;;;;;5073330;28;20441;-73
2022/09/24 06:53:18;;;;;;;60.87;41.63;;;;;;;;;;5072631;28;20445;-73
2022/09/24 06:55:46;;;;;;;58.87;42.77;;;;;;;;;;5073147;28;20442;-72
2022/09/24 06:58:14;;;;;;;59.20;42.37;;;;;;;;;;5073117;28;20455;-73
2022/09/24 07:00:41;;;;;;;65.03;44.37;;;;;;;;;;5072906;28;20449;-73
2022/09/24 07:03:13;;;;;;;68.50;45.17;;;;;;;;;;5072944;28;20471;-73
2022/09/24 07:05:40;;;;;;;62.23;45.00;;;;;;;;;;5073056;28;20483;-73
2022/09/24 07:08:09;;;;;;;70.07;44.97;;;;;;;;;;5072803;28;20441;-73
2022/09/24 07:10:36;;;;;;;63.70;43.50;;;;;;;;;;5072445;28;20441;-73
2022/09/24 07:13:04;;;;;;;69.57;45.17;;;;;;;;;;5072461;28;20452;-73
2022/09/24 07:15:31;;;;;;;62.00;44.40;;;;;;;;;;5072892;28;20468;-73
2022/09/24 07:17:58;;;;;;;68.00;45.30;;;;;;;;;;5076705;28;20457;-73
2022/09/24 07:20:27;;;;;;;64.43;45.27;;;;;;;;;;5077129;28;20443;-73
2022/09/24 07:22:54;;;;;;;70.90;44.90;;;;;;;;;;5076594;28;20456;-74
2022/09/24 07:25:23;;;;;;;62.67;45.67;;;;;;;;;;5077040;28;20434;-73
2022/09/24 07:27:50;;;;;;;72.83;47.83;;;;;;;;;;5076396;28;20855;-74
2022/09/24 07:30:17;;;;;;;66.63;46.23;;;;;;;;;;5076562;28;20476;-74
2022/09/24 07:32:45;;;;;;;74.77;44.83;;;;;;;;;;5076388;28;20446;-73
2022/09/24 07:35:12;;;;;;;63.63;44.67;;;;;;;;;;5076781;28;20441;-74
2022/09/24 07:37:39;;;;;;;58.37;44.77;;;;;;;;;;5076000;28;20449;-73
2022/09/24 07:40:07;;;;;;;65.87;47.20;;;;;;;;;;5076590;28;20533;-73
2022/09/24 07:42:36;;;;;;;64.40;45.33;;;;;;;;;;5076185;28;20443;-74
2022/09/24 07:45:03;;;;;;;65.87;46.07;;;;;;;;;;5076613;28;20448;-73
2022/09/24 07:47:30;;;;;;;59.03;43.53;;;;;;;;;;5076439;28;20793;-74
2022/09/24 07:49:58;;;;;;;56.67;43.87;;;;;;;;;;5076087;28;20571;-73
2022/09/24 07:52:25;;;;;;;64.67;44.90;;;;;;;;;;5076060;28;20465;-74
2022/09/24 07:54:53;;;;;;;67.00;45.57;;;;;;;;;;5075773;28;20456;-73
2022/09/24 07:57:20;;;;;;;63.80;44.87;;;;;;;;;;5076303;28;20449;-73
2022/09/24 07:59:50;;;;;;;61.10;42.50;;;;;;;;;;5076227;28;20450;-73
2022/09/24 08:02:18;;;;;;;56.50;43.13;;;;;;;;;;5075639;28;20428;-73
2022/09/24 08:04:45;;;;;;;57.80;44.10;;;;;;;;;;5076210;28;20447;-73
2022/09/24 08:07:13;;;;;;;59.37;43.00;;;;;;;;;;5075505;28;21014;-73
2022/09/24 08:09:41;;;;;;;61.33;42.70;;;;;;;;;;5076082;28;21002;-73
2022/09/24 08:12:08;;;;;;;57.57;41.47;;;;;;;;;;5075372;28;20955;-72
2022/09/24 08:14:36;;;;;;;57.50;42.90;;;;;;;;;;5075799;28;20445;-73
2022/09/24 08:17:04;;;;;;;55.73;41.97;;;;;;;;;;5075822;28;20543;-73
2022/09/24 08:19:33;;;;;;;53.27;41.37;;;;;;;;;;5075798;28;20755;-73
2022/09/24 08:22:00;;;;;;;53.33;41.27;;;;;;;;;;5075434;28;20810;-74
2022/09/24 08:24:28;;;;;;;59.77;42.43;;;;;;;;;;5075608;28;20448;-73
2022/09/24 08:26:55;;;;;;;51.07;40.37;;;;;;;;;;5091645;28;20452;-73
2022/09/24 08:29:22;;;;;;;49.00;41.03;;;;;;;;;;5095009;28;20687;-73
2022/09/24 08:31:49;;;;;;;48.23;36.70;;;;;;;;;;5095598;28;20445;-74
2022/09/24 08:34:18;;;;;;;52.33;37.87;;;;;;;;;;5095205;28;20448;-74
2022/09/24 08:36:45;;;;;;;49.97;38.40;;;;;;;;;;5095397;28;20445;-74
2022/09/24 08:39:14;;;;;;;46.63;36.50;;;;;;;;;;5095092;28;20940;-74
2022/09/24 08:41:48;;;;;;;46.70;36.83;;;;;;;;;;5095689;28;20462;-74
2022/09/24 08:47:21;;;;;;;48.20;36.27;;;;;;;;;;5095403;28;20511;-74
2022/09/24 08:47:22;;;;;;;50.30;38.57;;;;;;;;;;5094844;28;20426;-74
2022/09/24 08:49:53;;;;;;;49.13;37.90;;;;;;;;;;5094975;28;21052;-74
2022/09/24 08:52:26;;;;;;;47.13;36.03;;;;;;;;;;5094684;28;20433;-74
2022/09/24 08:54:55;;;;;;;44.73;37.40;;;;;;;;;;5091752;28;20901;-74
2022/09/24 08:57:23;;;;;;;43.67;35.27;;;;;;;;;;5074367;28;20490;-74
2022/09/24 08:59:51;;;;;;;44.50;36.07;;;;;;;;;;5074972;28;20540;-74
2022/09/24 09:02:25;;;;;;;43.40;37.07;;;;;;;;;;5074312;28;20803;-73
2022/09/24 09:04:59;;;;;;;41.87;35.57;;;;;;;;;;5074871;28;20478;-72
2022/09/24 09:07:29;;;;;;;41.97;34.73;;;;;;;;;;5074637;28;20425;-73
2022/09/24 09:09:59;;;;;;;45.10;34.77;;;;;;;;;;5074461;28;20477;-73
2022/09/24 09:12:30;;;;;;;40.47;32.77;;;;;;;;;;5074414;28;20544;-74
2022/09/24 09:15:02;;;;;;;44.60;32.53;;;;;;;;;;5074318;28;20445;-74
2022/09/24 09:17:35;;;;;;;39.33;31.53;;;;;;;;;;5074402;28;20460;-73
2022/09/24 09:20:06;;;;;;;40.20;30.90;;;;;;;;;;5074320;28;20427;-73
2022/09/24 09:22:36;;;;;;;35.53;29.50;;;;;;;;;;5073970;28;20432;-73
2022/09/24 09:25:10;;;;;;;38.33;28.83;;;;;;;;;;5074073;28;20441;-73
2022/09/24 09:27:37;;;;;;;39.50;28.13;;;;;;;;;;5074061;28;20515;-73
2022/09/24 09:30:05;;;;;;;34.73;27.60;;;;;;;;;;5073825;28;20561;-72
2022/09/24 09:32:40;;;;;;;36.80;29.10;;;;;;;;;;5073981;28;20451;-74
2022/09/24 09:35:17;;;;;;;34.30;28.50;;;;;;;;;;5073726;28;20432;-74
2022/09/24 09:37:46;;;;;;;36.47;29.30;;;;;;;;;;5073844;28;20459;-73
2022/09/24 09:40:23;;;;;;;35.47;27.30;;;;;;;;;;5073668;28;20448;-73
2022/09/24 09:42:51;;;;;;;34.53;27.77;;;;;;;;;;5073571;28;20422;-73
2022/09/24 09:45:25;;;;;;;33.63;25.00;;;;;;;;;;5073938;28;20457;-74
2022/09/24 09:47:55;;;;;;;31.87;26.27;;;;;;;;;;5073800;28;20426;-74
2022/09/24 09:50:27;;;;;;;29.00;25.53;;;;;;;;;;5073475;28;20479;-74
2022/09/24 09:52:54;;;;;;;31.43;22.87;;;;;;;;;;5073593;28;20434;-73
2022/09/24 09:55:22;;;;;;;28.47;24.80;;;;;;;;;;5073477;28;20447;-74
2022/09/24 09:57:51;;;;;;;30.13;23.90;;;;;;;;;;5073673;28;20445;-75
2022/09/24 10:00:25;;;;;;;30.10;21.47;;;;;;;;;;5073431;28;20447;-74
2022/09/24 10:02:53;;;;;;;29.13;21.60;;;;;;;;;;5074117;28;20847;-74
2022/09/24 10:05:21;;;;;;;27.33;20.70;;;;;;;;;;5073405;28;20499;-75
2022/09/24 10:07:50;;;;;;;23.00;19.60;;;;;;;;;;5073209;28;20530;-74
2022/09/24 10:10:18;;;;;;;30.57;20.97;;;;;;;;;;5073916;28;20476;-74
2022/09/24 10:12:45;;;;;;;23.20;19.20;;;;;;;;;;5073461;28;20448;-73
2022/09/24 10:15:17;;;;;;;28.13;21.17;;;;;;;;;;5073231;28;20446;-74
2022/09/24 10:17:45;;;;;;;27.27;21.10;;;;;;;;;;5073185;28;20434;-73
2022/09/24 10:20:17;;;;;;;23.83;20.90;;;;;;;;;;5073119;28;20968;-74
2022/09/24 10:22:47;;;;;;;28.03;20.83;;;;;;;;;;5073597;28;20766;-74
2022/09/24 10:25:23;;;;;;;27.53;20.80;;;;;;;;;;5073388;28;20436;-74
2022/09/24 10:27:51;;;;;;;25.57;20.07;;;;;;;;;;5073211;28;20796;-74
2022/09/24 10:30:33;;;;;;;25.23;19.90;;;;;;;;;;5073012;28;20475;-75
2022/09/24 10:33:01;;;;;;;26.93;19.60;;;;;;;;;;5073694;28;20501;-73
2022/09/24 10:35:31;;;;;;;23.53;19.10;;;;;;;;;;5073213;28;20954;-73
2022/09/24 10:37:59;;;;;;;22.70;18.17;;;;;;;;;;5072990;28;20953;-74
2022/09/24 10:40:29;;;;;;;15.87;13.97;;;;;;;;;;5073266;28;20447;-73
2022/09/24 10:42:57;;;;;;;16.40;14.60;;;;;;;;;;5072918;28;20436;-73
2022/09/24 10:45:27;;;;;;;26.80;15.33;;;;;;;;;;5073542;28;20433;-74
2022/09/24 10:47:58;;;;;;;15.63;13.50;;;;;;;;;;5072917;28;20446;-75
2022/09/24 10:50:28;;;;;;;15.20;13.60;;;;;;;;;;5072030;28;20962;-74
2022/09/24 10:52:58;;;;;;;12.40;11.10;;;;;;;;;;5073115;28;20441;-73
2022/09/24 10:55:40;;;;;;;13.80;12.30;;;;;;;;;;5072993;28;20443;-74
2022/09/24 10:58:12;;;;;;;17.40;12.60;;;;;;;;;;5072743;28;20922;-74
2022/09/24 11:00:40;;;;;;;15.30;11.80;;;;;;;;;;5073203;28;20438;-73
2022/09/24 11:03:16;;;;;;;13.97;12.27;;;;;;;;;;5073109;28;20444;-74
2022/09/24 11:05:46;;;;;;;13.30;11.90;;;;;;;;;;5073363;28;20439;-75
2022/09/24 11:08:19;;;;;;;15.80;12.43;;;;;;;;;;5073008;28;20961;-74
2022/09/24 11:11:13;;;;;;;14.90;12.33;;;;;;;;;;5072649;28;20477;-74
2022/09/24 11:13:42;;;;;;;15.33;12.47;;;;;;;;;;5073324;28;20531;-73
2022/09/24 11:16:27;;;;;;;13.63;12.23;;;;;;;;;;5072996;28;20440;-75
2022/09/24 11:18:57;;;;;;;15.50;13.13;;;;;;;;;;5073424;28;20471;-74
2022/09/24 11:21:39;;;;;;;14.47;12.23;;;;;;;;;;5073763;28;20521;-74
2022/09/24 11:24:24;;;;;;;15.33;12.97;;;;;;;;;;5078569;28;20442;-74
2022/09/24 11:26:59;;;;;;;17.90;13.13;;;;;;;;;;5092964;28;20451;-75
2022/09/24 11:29:47;;;;;;;13.73;12.27;;;;;;;;;;5092673;28;20526;-74
2022/09/24 11:32:19;;;;;;;14.13;12.60;;;;;;;;;;5086375;28;20506;-74
2022/09/24 11:34:55;;;;;;;16.60;13.17;;;;;;;;;;5092642;28;20901;-74
2022/09/24 11:37:28;;;;;;;14.07;11.73;;;;;;;;;;5092894;28;20530;-74
2022/09/24 11:40:05;;;;;;;13.07;11.70;;;;;;;;;;5092678;28;20426;-74
2022/09/24 11:42:37;;;;;;;15.97;12.70;;;;;;;;;;5093084;28;20428;-74
2022/09/24 11:45:28;;;;;;;14.83;13.07;;;;;;;;;;5092430;28;20436;-74
2022/09/24 11:48:03;;;;;;;14.53;12.47;;;;;;;;;;5092408;28;20428;-74
2022/09/24 11:50:36;;;;;;;12.80;11.50;;;;;;;;;;5092874;28;20468;-74
2022/09/24 11:53:06;;;;;;;11.93;10.73;;;;;;;;;;5092470;28;20427;-74
2022/09/24 11:55:37;;;;;;;13.53;12.10;;;;;;;;;;5072278;28;20455;-74
2022/09/24 11:58:11;;;;;;;14.03;12.10;;;;;;;;;;5072299;28;20457;-75
2022/09/24 12:00:40;;;;;;;14.27;12.77;;;;;;;;;;5072463;28;20456;-75
2022/09/24 12:03:12;;;;;;;15.90;12.40;;;;;;;;;;5075034;28;20529;-75
2022/09/24 12:05:43;;;;;;;14.07;11.83;;;;;;;;;;5075534;28;20433;-74
2022/09/24 12:08:13;;;;;;;14.37;11.43;;;;;;;;;;5076098;28;20433;-75
2022/09/24 12:10:42;;;;;;;14.03;12.57;;;;;;;;;;5075667;28;20477;-75
2022/09/24 12:13:13;;;;;;;16.73;12.30;;;;;;;;;;5075494;28;20480;-75
2022/09/24 12:15:46;;;;;;;13.00;11.47;;;;;;;;;;5075747;28;20508;-74
2022/09/24 12:18:17;;;;;;;12.90;11.50;;;;;;;;;;5075835;28;20482;-75
2022/09/24 12:20:46;;;;;;;13.77;11.00;;;;;;;;;;5075741;28;20441;-75
2022/09/24 12:23:16;;;;;;;12.60;11.30;;;;;;;;;;5075224;28;20476;-73
2022/09/24 12:25:45;;;;;;;14.47;11.47;;;;;;;;;;5075438;28;20448;-74
2022/09/24 12:32:52;;;;;;;14.37;12.27;;;;;;;;;;5075436;28;20482;-75
2022/09/24 12:33:54;;;;;;;11.27;10.07;;;;;;;;;;5075073;28;20423;-74
2022/09/24 12:36:24;;;;;;;11.97;10.20;;;;;;;;;;5075426;28;20853;-75
2022/09/24 12:38:54;;;;;;;11.37;10.27;;;;;;;;;;5075356;28;20532;-76
2022/09/24 12:41:25;;;;;;;11.70;10.40;;;;;;;;;;5075106;28;20941;-76
2022/09/24 12:43:55;;;;;;;12.27;9.80;;;;;;;;;;5074859;28;20449;-74
2022/09/24 12:46:23;;;;;;;10.97;9.77;;;;;;;;;;5075318;28;20442;-75
2022/09/24 12:48:51;;;;;;;11.10;9.70;;;;;;;;;;5074574;28;20446;-75
2022/09/24 12:51:21;;;;;;;11.17;9.80;;;;;;;;;;5081822;28;20474;-76
2022/09/24 12:53:56;;;;;;;11.10;10.00;;;;;;;;;;5095138;28;20444;-75
2022/09/24 12:56:25;;;;;;;11.53;10.30;;;;;;;;;;5095058;28;20440;-74
2022/09/24 12:58:53;;;;;;;12.37;9.67;;;;;;;;;;5094685;28;20464;-75
2022/09/24 13:01:29;;;;;;;11.67;9.73;;;;;;;;;;5095173;28;20848;-75
2022/09/24 13:04:03;;;;;;;12.50;10.73;;;;;;;;;;5094753;28;20430;-72
2022/09/24 13:06:32;;;;;;;10.77;9.73;;;;;;;;;;5094417;28;20440;-71
2022/09/24 13:08:59;;;;;;;11.40;10.20;;;;;;;;;;5094881;28;20445;-71
2022/09/24 13:11:29;;;;;;;10.00;9.00;;;;;;;;;;5094873;28;20482;-72
2022/09/24 13:14:19;;;;;;;9.43;8.50;;;;;;;;;;5094091;28;20443;-72
2022/09/24 13:16:49;;;;;;;14.90;9.17;;;;;;;;;;5094510;28;20443;-71
2022/09/24 13:19:24;;;;;;;14.23;10.53;;;;;;;;;;5094921;28;20425;-71
2022/09/24 13:21:54;;;;;;;10.63;9.63;;;;;;;;;;5094664;28;20434;-71
2022/09/24 13:24:26;;;;;;;11.30;9.37;;;;;;;;;;5094599;28;20448;-71
2022/09/24 13:26:53;;;;;;;11.67;9.87;;;;;;;;;;5094497;28;20436;-71
2022/09/24 13:29:24;;;;;;;10.73;9.63;;;;;;;;;;5094731;28;20473;-71
2022/09/24 13:31:56;;;;;;;11.20;10.10;;;;;;;;;;5094328;28;20476;-71
2022/09/24 13:34:25;;;;;;;13.03;11.07;;;;;;;;;;5095211;28;20441;-71
2022/09/24 13:36:56;;;;;;;13.33;9.70;;;;;;;;;;5094411;28;20491;-71
2022/09/24 13:39:25;;;;;;;10.20;8.10;;;;;;;;;;5094221;28;20431;-71
2022/09/24 13:41:57;;;;;;;12.60;10.17;;;;;;;;;;5094324;28;20445;-72
2022/09/24 13:44:28;;;;;;;12.10;9.43;;;;;;;;;;5094632;28;20510;-71
2022/09/24 13:47:00;;;;;;;10.13;9.00;;;;;;;;;;5094422;28;20444;-71
2022/09/24 13:49:28;;;;;;;10.83;9.73;;;;;;;;;;5094024;28;20439;-72
2022/09/24 13:52:00;;;;;;;13.80;9.50;;;;;;;;;;5093788;28;20487;-72
2022/09/24 13:54:31;;;;;;;9.87;8.97;;;;;;;;;;5093930;28;20431;-71
2022/09/24 13:56:59;;;;;;;11.60;9.20;;;;;;;;;;5094253;28;20496;-72
2022/09/24 13:59:27;;;;;;;11.60;9.77;;;;;;;;;;5094290;28;20454;-71
2022/09/24 14:01:54;;;;;;;11.57;10.03;;;;;;;;;;5094083;28;20450;-72
2022/09/24 14:04:23;;;;;;;10.03;9.03;;;;;;;;;;5093705;28;20804;-71
2022/09/24 14:06:52;;;;;;;11.87;10.67;;;;;;;;;;5093920;28;20436;-71
2022/09/24 14:09:29;;;;;;;13.30;10.33;;;;;;;;;;5093601;28;20438;-71
2022/09/24 14:11:57;;;;;;;10.20;9.00;;;;;;;;;;5093717;28;20973;-71
2022/09/24 14:14:26;;;;;;;11.03;9.70;;;;;;;;;;5093431;28;20441;-71
2022/09/24 14:16:54;;;;;;;10.67;9.67;;;;;;;;;;5093269;28;20544;-71
2022/09/24 14:19:23;;;;;;;11.83;9.73;;;;;;;;;;5093679;28;20443;-71
2022/09/24 14:21:53;;;;;;;13.70;10.00;;;;;;;;;;5093593;28;20536;-71
2022/09/24 14:24:23;;;;;;;9.47;8.30;;;;;;;;;;5093774;28;20452;-72
2022/09/24 14:26:52;;;;;;;10.60;9.57;;;;;;;;;;5092516;28;20856;-71
2022/09/24 14:29:21;;;;;;;10.10;8.77;;;;;;;;;;5093178;28;20565;-71
2022/09/24 14:31:49;;;;;;;10.63;8.57;;;;;;;;;;5092929;28;20479;-71
2022/09/24 14:34:27;;;;;;;9.17;7.43;;;;;;;;;;5093674;28;20442;-71
2022/09/24 14:36:55;;;;;;;8.10;7.27;;;;;;;;;;5093622;28;20476;-71
2022/09/24 14:39:25;;;;;;;9.03;7.77;;;;;;;;;;5093099;28;20435;-71
2022/09/24 14:41:53;;;;;;;9.03;7.90;;;;;;;;;;5093392;28;20446;-71
2022/09/24 14:44:22;;;;;;;8.20;7.20;;;;;;;;;;5092968;28;20554;-71
2022/09/24 14:46:51;;;;;;;8.97;6.97;;;;;;;;;;5092851;28;20557;-70